sensor_id;sensor_type;location;lat;lon;timestamp;P1;durP1;ratioP1;P2;durP2;ratioP2
12844;SDS011;68700;48.534;9.196;2023-09-18T00:03:21;4.47;;;3.40;;
12844;SDS011;68700;48.534;9.196;2023-09-18T00:06:44;2.93;;;2.73;;
12844;SDS011;68700;48.534;9.196;2023-09-18T00:10:06;3.87;;;3.20;;
12844;SDS011;68700;48.534;9.196;2023-09-18T00:13:28;5.10;;;3.27;;
12844;SDS011;68700;48.534;9.196;2023-09-18T00:16:50;5.60;;;3.33;;
12844;SDS011;68700;48.534;9.196;2023-09-18T00:20:14;5.93;;;3.40;;
12844;SDS011;68700;48.534;9.196;2023-09-18T00:23:37;3.57;;;3.23;;
12844;SDS011;68700;48.534;9.196;2023-09-18T00:26:59;5.40;;;3.47;;
12844;SDS011;68700;48.534;9.196;2023-09-18T00:30:21;4.40;;;3.43;;
12844;SDS011;68700;48.534;9.196;2023-09-18T00:33:42;5.70;;;3.70;;
12844;SDS011;68700;48.534;9.196;2023-09-18T00:37:06;4.43;;;3.60;;
12844;SDS011;68700;48.534;9.196;2023-09-18T00:40:27;3.37;;;2.97;;
12844;SDS011;68700;48.534;9.196;2023-09-18T00:43:50;3.90;;;3.43;;
12844;SDS011;68700;48.534;9.196;2023-09-18T00:47:18;4.23;;;3.40;;
12844;SDS011;68700;48.534;9.196;2023-09-18T00:50:40;5.27;;;3.70;;
12844;SDS011;68700;48.534;9.196;2023-09-18T00:54:05;7.13;;;3.43;;
12844;SDS011;68700;48.534;9.196;2023-09-18T00:57:28;7.63;;;4.17;;
12844;SDS011;68700;48.534;9.196;2023-09-18T01:00:50;4.50;;;3.60;;
12844;SDS011;68700;48.534;9.196;2023-09-18T01:04:12;5.10;;;3.90;;
12844;SDS011;68700;48.534;9.196;2023-09-18T01:07:34;3.83;;;3.47;;
12844;SDS011;68700;48.534;9.196;2023-09-18T01:10:59;8.47;;;3.83;;
12844;SDS011;68700;48.534;9.196;2023-09-18T01:14:29;5.33;;;3.30;;
12844;SDS011;68700;48.534;9.196;2023-09-18T01:17:53;5.50;;;3.33;;
12844;SDS011;68700;48.534;9.196;2023-09-18T01:21:15;5.90;;;3.63;;
12844;SDS011;68700;48.534;9.196;2023-09-18T01:24:39;7.07;;;4.00;;
12844;SDS011;68700;48.534;9.196;2023-09-18T01:28:01;4.93;;;4.00;;
12844;SDS011;68700;48.534;9.196;2023-09-18T01:31:26;5.67;;;3.50;;
12844;SDS011;68700;48.534;9.196;2023-09-18T01:34:49;4.40;;;3.50;;
12844;SDS011;68700;48.534;9.196;2023-09-18T01:38:13;5.23;;;3.50;;
12844;SDS011;68700;48.534;9.196;2023-09-18T01:41:37;5.27;;;3.50;;
12844;SDS011;68700;48.534;9.196;2023-09-18T01:45:00;5.63;;;3.50;;
12844;SDS011;68700;48.534;9.196;2023-09-18T01:48:22;8.10;;;3.77;;
12844;SDS011;68700;48.534;9.196;2023-09-18T01:51:44;5.70;;;3.33;;
12844;SDS011;68700;48.534;9.196;2023-09-18T01:55:08;5.73;;;3.50;;
12844;SDS011;68700;48.534;9.196;2023-09-18T01:58:33;6.00;;;3.50;;
12844;SDS011;68700;48.534;9.196;2023-09-18T02:01:55;6.10;;;3.50;;
12844;SDS011;68700;48.534;9.196;2023-09-18T02:05:17;4.93;;;3.80;;
12844;SDS011;68700;48.534;9.196;2023-09-18T02:08:38;5.03;;;3.90;;
12844;SDS011;68700;48.534;9.196;2023-09-18T02:12:00;5.60;;;3.50;;
12844;SDS011;68700;48.534;9.196;2023-09-18T02:15:24;6.53;;;3.90;;
12844;SDS011;68700;48.534;9.196;2023-09-18T02:18:46;4.27;;;3.70;;
12844;SDS011;68700;48.534;9.196;2023-09-18T02:22:08;5.03;;;3.27;;
12844;SDS011;68700;48.534;9.196;2023-09-18T02:25:29;4.53;;;3.87;;
12844;SDS011;68700;48.534;9.196;2023-09-18T02:28:51;5.90;;;3.60;;
12844;SDS011;68700;48.534;9.196;2023-09-18T02:32:15;3.97;;;3.47;;
12844;SDS011;68700;48.534;9.196;2023-09-18T02:35:37;5.17;;;3.60;;
12844;SDS011;68700;48.534;9.196;2023-09-18T02:38:59;5.23;;;3.40;;
12844;SDS011;68700;48.534;9.196;2023-09-18T02:42:21;6.90;;;3.40;;
12844;SDS011;68700;48.534;9.196;2023-09-18T02:45:43;5.43;;;4.03;;
12844;SDS011;68700;48.534;9.196;2023-09-18T02:49:07;6.53;;;3.80;;
12844;SDS011;68700;48.534;9.196;2023-09-18T02:52:29;6.63;;;3.67;;
12844;SDS011;68700;48.534;9.196;2023-09-18T02:55:51;5.80;;;3.90;;
12844;SDS011;68700;48.534;9.196;2023-09-18T02:59:14;6.17;;;3.50;;
12844;SDS011;68700;48.534;9.196;2023-09-18T03:02:36;7.13;;;4.27;;
12844;SDS011;68700;48.534;9.196;2023-09-18T03:06:03;4.27;;;3.80;;
12844;SDS011;68700;48.534;9.196;2023-09-18T03:09:26;3.83;;;3.43;;
12844;SDS011;68700;48.534;9.196;2023-09-18T03:12:48;5.60;;;3.73;;
12844;SDS011;68700;48.534;9.196;2023-09-18T03:16:10;7.40;;;3.63;;
12844;SDS011;68700;48.534;9.196;2023-09-18T03:19:32;4.67;;;3.43;;
12844;SDS011;68700;48.534;9.196;2023-09-18T03:22:55;5.37;;;3.77;;
12844;SDS011;68700;48.534;9.196;2023-09-18T03:26:19;4.20;;;3.30;;
12844;SDS011;68700;48.534;9.196;2023-09-18T03:29:41;7.03;;;3.70;;
12844;SDS011;68700;48.534;9.196;2023-09-18T03:33:03;5.67;;;3.40;;
12844;SDS011;68700;48.534;9.196;2023-09-18T03:36:25;6.37;;;3.60;;
12844;SDS011;68700;48.534;9.196;2023-09-18T03:39:48;9.47;;;4.00;;
12844;SDS011;68700;48.534;9.196;2023-09-18T03:43:10;8.80;;;3.90;;
12844;SDS011;68700;48.534;9.196;2023-09-18T03:46:33;6.13;;;3.73;;
12844;SDS011;68700;48.534;9.196;2023-09-18T03:49:54;5.47;;;3.60;;
12844;SDS011;68700;48.534;9.196;2023-09-18T03:53:16;6.23;;;3.23;;
12844;SDS011;68700;48.534;9.196;2023-09-18T03:56:40;5.50;;;3.67;;
12844;SDS011;68700;48.534;9.196;2023-09-18T04:00:02;3.83;;;3.17;;
12844;SDS011;68700;48.534;9.196;2023-09-18T04:03:26;5.80;;;3.50;;
12844;SDS011;68700;48.534;9.196;2023-09-18T04:06:47;3.60;;;3.13;;
12844;SDS011;68700;48.534;9.196;2023-09-18T04:10:10;4.90;;;3.80;;
12844;SDS011;68700;48.534;9.196;2023-09-18T04:13:37;9.03;;;3.33;;
12844;SDS011;68700;48.534;9.196;2023-09-18T04:16:58;4.00;;;3.37;;
12844;SDS011;68700;48.534;9.196;2023-09-18T04:20:21;4.47;;;3.13;;
12844;SDS011;68700;48.534;9.196;2023-09-18T04:23:44;4.70;;;3.00;;
12844;SDS011;68700;48.534;9.196;2023-09-18T04:27:06;6.03;;;3.30;;
12844;SDS011;68700;48.534;9.196;2023-09-18T04:30:29;4.87;;;3.40;;
12844;SDS011;68700;48.534;9.196;2023-09-18T04:33:51;6.20;;;3.43;;
12844;SDS011;68700;48.534;9.196;2023-09-18T04:37:13;3.60;;;3.20;;
12844;SDS011;68700;48.534;9.196;2023-09-18T04:40:35;4.17;;;2.87;;
12844;SDS011;68700;48.534;9.196;2023-09-18T04:43:57;5.03;;;3.10;;
12844;SDS011;68700;48.534;9.196;2023-09-18T04:47:21;3.80;;;3.40;;
12844;SDS011;68700;48.534;9.196;2023-09-18T04:50:43;4.23;;;3.20;;
12844;SDS011;68700;48.534;9.196;2023-09-18T04:54:05;7.70;;;3.23;;
12844;SDS011;68700;48.534;9.196;2023-09-18T04:57:27;4.70;;;3.10;;
12844;SDS011;68700;48.534;9.196;2023-09-18T05:00:53;5.87;;;3.80;;
12844;SDS011;68700;48.534;9.196;2023-09-18T05:04:17;4.97;;;3.10;;
12844;SDS011;68700;48.534;9.196;2023-09-18T05:07:41;5.60;;;3.50;;
12844;SDS011;68700;48.534;9.196;2023-09-18T05:11:03;3.63;;;2.90;;
12844;SDS011;68700;48.534;9.196;2023-09-18T05:14:25;7.30;;;3.30;;
12844;SDS011;68700;48.534;9.196;2023-09-18T05:17:47;8.77;;;3.20;;
12844;SDS011;68700;48.534;9.196;2023-09-18T05:21:13;6.20;;;2.90;;
12844;SDS011;68700;48.534;9.196;2023-09-18T05:24:35;6.33;;;2.90;;
12844;SDS011;68700;48.534;9.196;2023-09-18T05:27:57;9.13;;;3.17;;
12844;SDS011;68700;48.534;9.196;2023-09-18T05:31:20;9.33;;;3.37;;
12844;SDS011;68700;48.534;9.196;2023-09-18T05:34:43;6.83;;;3.27;;
12844;SDS011;68700;48.534;9.196;2023-09-18T05:38:06;5.63;;;2.93;;
12844;SDS011;68700;48.534;9.196;2023-09-18T05:41:28;6.60;;;2.90;;
12844;SDS011;68700;48.534;9.196;2023-09-18T05:44:51;8.70;;;3.60;;
12844;SDS011;68700;48.534;9.196;2023-09-18T05:48:13;5.13;;;2.83;;
12844;SDS011;68700;48.534;9.196;2023-09-18T05:51:35;9.47;;;3.87;;
12844;SDS011;68700;48.534;9.196;2023-09-18T05:54:58;7.80;;;3.80;;
12844;SDS011;68700;48.534;9.196;2023-09-18T05:58:20;8.63;;;4.53;;
12844;SDS011;68700;48.534;9.196;2023-09-18T06:01:44;9.30;;;3.90;;
12844;SDS011;68700;48.534;9.196;2023-09-18T06:05:08;8.10;;;3.50;;
12844;SDS011;68700;48.534;9.196;2023-09-18T06:08:31;10.33;;;4.07;;
12844;SDS011;68700;48.534;9.196;2023-09-18T06:11:54;8.37;;;3.93;;
12844;SDS011;68700;48.534;9.196;2023-09-18T06:15:16;8.33;;;3.50;;
12844;SDS011;68700;48.534;9.196;2023-09-18T06:18:39;10.10;;;3.40;;
12844;SDS011;68700;48.534;9.196;2023-09-18T06:22:01;4.70;;;2.90;;
12844;SDS011;68700;48.534;9.196;2023-09-18T06:25:25;12.53;;;3.30;;
12844;SDS011;68700;48.534;9.196;2023-09-18T06:28:48;6.93;;;3.10;;
12844;SDS011;68700;48.534;9.196;2023-09-18T06:32:11;7.97;;;3.50;;
12844;SDS011;68700;48.534;9.196;2023-09-18T06:35:33;9.03;;;3.97;;
12844;SDS011;68700;48.534;9.196;2023-09-18T06:38:55;9.67;;;3.60;;
12844;SDS011;68700;48.534;9.196;2023-09-18T06:42:17;7.80;;;3.43;;
12844;SDS011;68700;48.534;9.196;2023-09-18T06:45:40;11.60;;;4.00;;
12844;SDS011;68700;48.534;9.196;2023-09-18T06:49:02;10.03;;;3.40;;
12844;SDS011;68700;48.534;9.196;2023-09-18T06:52:24;6.07;;;3.20;;
12844;SDS011;68700;48.534;9.196;2023-09-18T06:55:46;9.63;;;2.77;;
12844;SDS011;68700;48.534;9.196;2023-09-18T06:59:08;7.10;;;2.43;;
12844;SDS011;68700;48.534;9.196;2023-09-18T07:02:31;6.37;;;2.63;;
12844;SDS011;68700;48.534;9.196;2023-09-18T07:05:53;5.53;;;2.30;;
12844;SDS011;68700;48.534;9.196;2023-09-18T07:09:15;7.90;;;2.67;;
12844;SDS011;68700;48.534;9.196;2023-09-18T07:12:43;4.73;;;2.70;;
12844;SDS011;68700;48.534;9.196;2023-09-18T07:16:05;5.60;;;2.40;;
12844;SDS011;68700;48.534;9.196;2023-09-18T07:19:29;8.33;;;2.47;;
12844;SDS011;68700;48.534;9.196;2023-09-18T07:22:50;9.83;;;2.87;;
12844;SDS011;68700;48.534;9.196;2023-09-18T07:26:12;7.40;;;2.70;;
12844;SDS011;68700;48.534;9.196;2023-09-18T07:29:34;5.23;;;2.10;;
12844;SDS011;68700;48.534;9.196;2023-09-18T07:32:56;8.47;;;2.40;;
12844;SDS011;68700;48.534;9.196;2023-09-18T07:36:19;6.93;;;2.20;;
12844;SDS011;68700;48.534;9.196;2023-09-18T07:39:41;8.80;;;2.13;;
12844;SDS011;68700;48.534;9.196;2023-09-18T07:43:03;7.93;;;2.13;;
12844;SDS011;68700;48.534;9.196;2023-09-18T07:46:25;5.67;;;2.23;;
12844;SDS011;68700;48.534;9.196;2023-09-18T07:49:47;6.83;;;2.20;;
12844;SDS011;68700;48.534;9.196;2023-09-18T07:53:10;8.80;;;2.03;;
12844;SDS011;68700;48.534;9.196;2023-09-18T07:56:32;8.07;;;2.90;;
12844;SDS011;68700;48.534;9.196;2023-09-18T07:59:56;5.60;;;2.13;;
12844;SDS011;68700;48.534;9.196;2023-09-18T08:03:18;4.93;;;2.03;;
12844;SDS011;68700;48.534;9.196;2023-09-18T08:06:42;5.63;;;2.07;;
12844;SDS011;68700;48.534;9.196;2023-09-18T08:10:06;7.70;;;1.97;;
12844;SDS011;68700;48.534;9.196;2023-09-18T08:13:29;7.63;;;2.17;;
12844;SDS011;68700;48.534;9.196;2023-09-18T08:16:55;6.33;;;1.73;;
12844;SDS011;68700;48.534;9.196;2023-09-18T08:20:18;4.27;;;1.50;;
12844;SDS011;68700;48.534;9.196;2023-09-18T08:23:40;4.63;;;1.50;;
12844;SDS011;68700;48.534;9.196;2023-09-18T08:27:04;2.80;;;1.77;;
12844;SDS011;68700;48.534;9.196;2023-09-18T08:30:25;4.63;;;1.73;;
12844;SDS011;68700;48.534;9.196;2023-09-18T08:33:47;6.93;;;1.77;;
12844;SDS011;68700;48.534;9.196;2023-09-18T08:37:10;4.87;;;1.73;;
12844;SDS011;68700;48.534;9.196;2023-09-18T08:40:33;3.77;;;1.47;;
12844;SDS011;68700;48.534;9.196;2023-09-18T08:43:58;4.83;;;2.00;;
12844;SDS011;68700;48.534;9.196;2023-09-18T08:47:23;6.87;;;1.90;;
12844;SDS011;68700;48.534;9.196;2023-09-18T08:50:46;5.50;;;1.90;;
12844;SDS011;68700;48.534;9.196;2023-09-18T08:54:08;3.50;;;1.90;;
12844;SDS011;68700;48.534;9.196;2023-09-18T08:57:31;6.43;;;1.80;;
12844;SDS011;68700;48.534;9.196;2023-09-18T09:00:57;3.87;;;1.70;;
12844;SDS011;68700;48.534;9.196;2023-09-18T09:04:20;3.30;;;1.67;;
12844;SDS011;68700;48.534;9.196;2023-09-18T09:07:42;4.33;;;1.63;;
12844;SDS011;68700;48.534;9.196;2023-09-18T09:11:04;5.47;;;1.47;;
12844;SDS011;68700;48.534;9.196;2023-09-18T09:14:26;2.90;;;1.33;;
12844;SDS011;68700;48.534;9.196;2023-09-18T09:17:51;4.40;;;1.70;;
12844;SDS011;68700;48.534;9.196;2023-09-18T09:21:13;3.77;;;1.60;;
12844;SDS011;68700;48.534;9.196;2023-09-18T09:24:39;2.80;;;1.40;;
12844;SDS011;68700;48.534;9.196;2023-09-18T09:28:02;2.07;;;1.20;;
12844;SDS011;68700;48.534;9.196;2023-09-18T09:31:26;3.43;;;1.47;;
12844;SDS011;68700;48.534;9.196;2023-09-18T09:34:50;2.33;;;1.30;;
12844;SDS011;68700;48.534;9.196;2023-09-18T09:38:20;4.27;;;1.37;;
12844;SDS011;68700;48.534;9.196;2023-09-18T09:41:44;4.33;;;1.40;;
12844;SDS011;68700;48.534;9.196;2023-09-18T09:45:10;2.67;;;1.30;;
12844;SDS011;68700;48.534;9.196;2023-09-18T09:48:34;2.00;;;1.27;;
12844;SDS011;68700;48.534;9.196;2023-09-18T09:52:01;1.80;;;1.13;;
12844;SDS011;68700;48.534;9.196;2023-09-18T09:55:26;2.00;;;1.10;;
12844;SDS011;68700;48.534;9.196;2023-09-18T10:02:28;3.00;;;1.57;;
12844;SDS011;68700;48.534;9.196;2023-09-18T10:05:51;4.17;;;1.60;;
12844;SDS011;68700;48.534;9.196;2023-09-18T10:09:15;3.03;;;1.30;;
12844;SDS011;68700;48.534;9.196;2023-09-18T10:12:38;1.57;;;0.90;;
12844;SDS011;68700;48.534;9.196;2023-09-18T10:16:00;1.87;;;1.03;;
12844;SDS011;68700;48.534;9.196;2023-09-18T10:19:27;2.37;;;1.00;;
12844;SDS011;68700;48.534;9.196;2023-09-18T10:22:54;1.77;;;1.13;;
12844;SDS011;68700;48.534;9.196;2023-09-18T10:26:23;3.30;;;1.00;;
12844;SDS011;68700;48.534;9.196;2023-09-18T10:29:49;2.00;;;1.00;;
12844;SDS011;68700;48.534;9.196;2023-09-18T10:33:11;1.20;;;1.10;;
12844;SDS011;68700;48.534;9.196;2023-09-18T10:36:34;1.93;;;1.10;;
12844;SDS011;68700;48.534;9.196;2023-09-18T10:39:56;1.90;;;1.00;;
12844;SDS011;68700;48.534;9.196;2023-09-18T10:43:22;1.83;;;1.17;;
12844;SDS011;68700;48.534;9.196;2023-09-18T10:46:44;1.47;;;1.13;;
12844;SDS011;68700;48.534;9.196;2023-09-18T10:50:07;2.37;;;1.03;;
12844;SDS011;68700;48.534;9.196;2023-09-18T10:53:30;3.57;;;1.20;;
12844;SDS011;68700;48.534;9.196;2023-09-18T10:56:53;2.40;;;1.20;;
12844;SDS011;68700;48.534;9.196;2023-09-18T11:00:19;2.80;;;1.20;;
12844;SDS011;68700;48.534;9.196;2023-09-18T11:03:45;4.07;;;1.30;;
12844;SDS011;68700;48.534;9.196;2023-09-18T11:07:07;2.30;;;1.30;;
12844;SDS011;68700;48.534;9.196;2023-09-18T11:10:29;2.07;;;1.30;;
12844;SDS011;68700;48.534;9.196;2023-09-18T11:13:51;2.03;;;1.27;;
12844;SDS011;68700;48.534;9.196;2023-09-18T11:17:29;2.03;;;1.50;;
12844;SDS011;68700;48.534;9.196;2023-09-18T11:21:06;2.47;;;1.27;;
12844;SDS011;68700;48.534;9.196;2023-09-18T11:24:29;3.47;;;1.23;;
12844;SDS011;68700;48.534;9.196;2023-09-18T11:27:52;4.00;;;1.43;;
12844;SDS011;68700;48.534;9.196;2023-09-18T11:31:15;2.77;;;1.50;;
12844;SDS011;68700;48.534;9.196;2023-09-18T11:34:39;3.93;;;1.30;;
12844;SDS011;68700;48.534;9.196;2023-09-18T11:38:05;3.60;;;1.27;;
12844;SDS011;68700;48.534;9.196;2023-09-18T11:41:28;4.90;;;1.70;;
12844;SDS011;68700;48.534;9.196;2023-09-18T11:44:51;4.33;;;1.53;;
12844;SDS011;68700;48.534;9.196;2023-09-18T11:48:15;3.47;;;1.70;;
12844;SDS011;68700;48.534;9.196;2023-09-18T11:51:39;2.97;;;1.50;;
12844;SDS011;68700;48.534;9.196;2023-09-18T11:55:01;3.87;;;1.50;;
12844;SDS011;68700;48.534;9.196;2023-09-18T11:58:24;2.90;;;1.50;;
12844;SDS011;68700;48.534;9.196;2023-09-18T12:01:52;3.07;;;1.43;;
12844;SDS011;68700;48.534;9.196;2023-09-18T12:05:14;1.50;;;1.13;;
12844;SDS011;68700;48.534;9.196;2023-09-18T12:08:38;4.20;;;1.43;;
12844;SDS011;68700;48.534;9.196;2023-09-18T12:12:01;3.13;;;1.80;;
12844;SDS011;68700;48.534;9.196;2023-09-18T12:15:26;2.77;;;1.53;;
12844;SDS011;68700;48.534;9.196;2023-09-18T12:18:50;1.40;;;1.20;;
12844;SDS011;68700;48.534;9.196;2023-09-18T12:22:11;4.20;;;1.50;;
12844;SDS011;68700;48.534;9.196;2023-09-18T12:25:35;2.57;;;1.30;;
12844;SDS011;68700;48.534;9.196;2023-09-18T12:28:57;2.63;;;1.70;;
12844;SDS011;68700;48.534;9.196;2023-09-18T12:32:20;2.33;;;1.40;;
12844;SDS011;68700;48.534;9.196;2023-09-18T12:35:43;2.43;;;1.27;;
12844;SDS011;68700;48.534;9.196;2023-09-18T12:39:06;4.60;;;1.23;;
12844;SDS011;68700;48.534;9.196;2023-09-18T12:42:30;3.00;;;1.47;;
12844;SDS011;68700;48.534;9.196;2023-09-18T12:45:52;1.60;;;1.20;;
12844;SDS011;68700;48.534;9.196;2023-09-18T12:49:16;3.80;;;1.20;;
12844;SDS011;68700;48.534;9.196;2023-09-18T12:52:40;3.60;;;1.33;;
12844;SDS011;68700;48.534;9.196;2023-09-18T12:56:05;2.60;;;1.40;;
12844;SDS011;68700;48.534;9.196;2023-09-18T12:59:32;3.00;;;1.50;;
12844;SDS011;68700;48.534;9.196;2023-09-18T13:02:55;4.00;;;1.40;;
12844;SDS011;68700;48.534;9.196;2023-09-18T13:06:18;2.10;;;1.40;;
12844;SDS011;68700;48.534;9.196;2023-09-18T13:09:40;2.00;;;1.57;;
12844;SDS011;68700;48.534;9.196;2023-09-18T13:13:02;2.33;;;1.17;;
12844;SDS011;68700;48.534;9.196;2023-09-18T13:16:26;2.97;;;1.63;;
12844;SDS011;68700;48.534;9.196;2023-09-18T13:19:48;2.60;;;1.50;;
12844;SDS011;68700;48.534;9.196;2023-09-18T13:23:10;2.60;;;1.40;;
12844;SDS011;68700;48.534;9.196;2023-09-18T13:26:32;3.73;;;1.57;;
12844;SDS011;68700;48.534;9.196;2023-09-18T13:29:54;2.73;;;1.50;;
12844;SDS011;68700;48.534;9.196;2023-09-18T13:33:18;2.60;;;1.30;;
12844;SDS011;68700;48.534;9.196;2023-09-18T13:36:39;2.50;;;1.30;;
12844;SDS011;68700;48.534;9.196;2023-09-18T13:40:01;2.57;;;1.20;;
12844;SDS011;68700;48.534;9.196;2023-09-18T13:43:27;2.40;;;1.50;;
12844;SDS011;68700;48.534;9.196;2023-09-18T13:46:52;2.00;;;1.30;;
12844;SDS011;68700;48.534;9.196;2023-09-18T13:50:15;1.40;;;1.30;;
12844;SDS011;68700;48.534;9.196;2023-09-18T13:53:37;2.57;;;1.20;;
12844;SDS011;68700;48.534;9.196;2023-09-18T13:57:01;2.43;;;1.50;;
12844;SDS011;68700;48.534;9.196;2023-09-18T14:00:24;2.23;;;1.40;;
12844;SDS011;68700;48.534;9.196;2023-09-18T14:03:46;2.33;;;1.30;;
12844;SDS011;68700;48.534;9.196;2023-09-18T14:07:10;2.90;;;1.50;;
12844;SDS011;68700;48.534;9.196;2023-09-18T14:10:32;1.80;;;1.30;;
12844;SDS011;68700;48.534;9.196;2023-09-18T14:13:54;2.23;;;1.27;;
12844;SDS011;68700;48.534;9.196;2023-09-18T14:17:16;3.30;;;1.23;;
12844;SDS011;68700;48.534;9.196;2023-09-18T14:20:41;1.77;;;1.20;;
12844;SDS011;68700;48.534;9.196;2023-09-18T14:24:05;1.53;;;1.23;;
12844;SDS011;68700;48.534;9.196;2023-09-18T14:27:27;3.63;;;1.17;;
12844;SDS011;68700;48.534;9.196;2023-09-18T14:30:49;3.93;;;1.27;;
12844;SDS011;68700;48.534;9.196;2023-09-18T14:34:11;1.83;;;1.30;;
12844;SDS011;68700;48.534;9.196;2023-09-18T14:37:33;1.90;;;1.30;;
12844;SDS011;68700;48.534;9.196;2023-09-18T14:40:57;1.93;;;1.30;;
12844;SDS011;68700;48.534;9.196;2023-09-18T14:44:22;3.13;;;1.40;;
12844;SDS011;68700;48.534;9.196;2023-09-18T14:47:45;2.40;;;1.30;;
12844;SDS011;68700;48.534;9.196;2023-09-18T14:51:07;2.07;;;1.40;;
12844;SDS011;68700;48.534;9.196;2023-09-18T14:54:29;1.73;;;1.20;;
12844;SDS011;68700;48.534;9.196;2023-09-18T14:57:52;2.70;;;1.33;;
12844;SDS011;68700;48.534;9.196;2023-09-18T15:01:14;1.83;;;1.30;;
12844;SDS011;68700;48.534;9.196;2023-09-18T15:04:36;2.77;;;1.60;;
12844;SDS011;68700;48.534;9.196;2023-09-18T15:07:58;2.63;;;1.43;;
12844;SDS011;68700;48.534;9.196;2023-09-18T15:11:20;1.93;;;1.40;;
12844;SDS011;68700;48.534;9.196;2023-09-18T15:14:44;2.60;;;1.30;;
12844;SDS011;68700;48.534;9.196;2023-09-18T15:18:06;1.57;;;1.13;;
12844;SDS011;68700;48.534;9.196;2023-09-18T15:21:29;2.23;;;1.30;;
12844;SDS011;68700;48.534;9.196;2023-09-18T15:24:51;1.67;;;1.47;;
12844;SDS011;68700;48.534;9.196;2023-09-18T15:28:12;2.43;;;1.50;;
12844;SDS011;68700;48.534;9.196;2023-09-18T15:31:36;2.70;;;1.20;;
12844;SDS011;68700;48.534;9.196;2023-09-18T15:34:58;1.70;;;1.10;;
12844;SDS011;68700;48.534;9.196;2023-09-18T15:38:20;2.03;;;1.50;;
12844;SDS011;68700;48.534;9.196;2023-09-18T15:41:42;1.80;;;1.27;;
12844;SDS011;68700;48.534;9.196;2023-09-18T15:45:06;3.37;;;1.50;;
12844;SDS011;68700;48.534;9.196;2023-09-18T15:48:30;3.03;;;1.20;;
12844;SDS011;68700;48.534;9.196;2023-09-18T15:51:52;3.87;;;1.33;;
12844;SDS011;68700;48.534;9.196;2023-09-18T15:55:14;1.80;;;1.30;;
12844;SDS011;68700;48.534;9.196;2023-09-18T15:58:36;2.03;;;1.30;;
12844;SDS011;68700;48.534;9.196;2023-09-18T16:01:58;3.17;;;1.40;;
12844;SDS011;68700;48.534;9.196;2023-09-18T16:05:21;2.70;;;1.30;;
12844;SDS011;68700;48.534;9.196;2023-09-18T16:08:45;2.53;;;1.30;;
12844;SDS011;68700;48.534;9.196;2023-09-18T16:12:09;3.20;;;1.37;;
12844;SDS011;68700;48.534;9.196;2023-09-18T16:15:31;2.87;;;1.30;;
12844;SDS011;68700;48.534;9.196;2023-09-18T16:18:52;2.73;;;1.60;;
12844;SDS011;68700;48.534;9.196;2023-09-18T16:22:18;2.50;;;1.30;;
12844;SDS011;68700;48.534;9.196;2023-09-18T16:25:40;1.70;;;1.50;;
12844;SDS011;68700;48.534;9.196;2023-09-18T16:29:02;1.70;;;1.40;;
12844;SDS011;68700;48.534;9.196;2023-09-18T16:32:24;3.63;;;1.40;;
12844;SDS011;68700;48.534;9.196;2023-09-18T16:35:50;2.63;;;1.40;;
12844;SDS011;68700;48.534;9.196;2023-09-18T16:39:13;2.83;;;1.50;;
12844;SDS011;68700;48.534;9.196;2023-09-18T16:42:36;2.10;;;1.37;;
12844;SDS011;68700;48.534;9.196;2023-09-18T16:45:58;2.37;;;1.60;;
12844;SDS011;68700;48.534;9.196;2023-09-18T16:49:20;5.83;;;2.10;;
12844;SDS011;68700;48.534;9.196;2023-09-18T16:52:43;3.13;;;1.47;;
12844;SDS011;68700;48.534;9.196;2023-09-18T16:56:07;2.80;;;1.60;;
12844;SDS011;68700;48.534;9.196;2023-09-18T16:59:29;2.80;;;1.67;;
12844;SDS011;68700;48.534;9.196;2023-09-18T17:02:51;3.30;;;1.40;;
12844;SDS011;68700;48.534;9.196;2023-09-18T17:06:13;2.50;;;1.50;;
12844;SDS011;68700;48.534;9.196;2023-09-18T17:09:35;2.90;;;1.57;;
12844;SDS011;68700;48.534;9.196;2023-09-18T17:12:59;3.03;;;1.60;;
12844;SDS011;68700;48.534;9.196;2023-09-18T17:16:30;2.80;;;1.60;;
12844;SDS011;68700;48.534;9.196;2023-09-18T17:19:55;2.80;;;1.83;;
12844;SDS011;68700;48.534;9.196;2023-09-18T17:23:17;4.73;;;2.00;;
12844;SDS011;68700;48.534;9.196;2023-09-18T17:26:40;3.13;;;1.70;;
12844;SDS011;68700;48.534;9.196;2023-09-18T17:30:04;7.13;;;1.93;;
12844;SDS011;68700;48.534;9.196;2023-09-18T17:33:27;2.00;;;1.50;;
12844;SDS011;68700;48.534;9.196;2023-09-18T17:36:48;2.87;;;1.87;;
12844;SDS011;68700;48.534;9.196;2023-09-18T17:40:10;4.33;;;1.70;;
12844;SDS011;68700;48.534;9.196;2023-09-18T17:43:34;2.27;;;1.80;;
12844;SDS011;68700;48.534;9.196;2023-09-18T17:46:58;2.60;;;1.83;;
12844;SDS011;68700;48.534;9.196;2023-09-18T17:50:19;2.43;;;1.90;;
12844;SDS011;68700;48.534;9.196;2023-09-18T17:53:41;4.13;;;1.80;;
12844;SDS011;68700;48.534;9.196;2023-09-18T17:57:03;2.80;;;1.60;;
12844;SDS011;68700;48.534;9.196;2023-09-18T18:00:25;4.60;;;1.80;;
12844;SDS011;68700;48.534;9.196;2023-09-18T18:03:49;3.20;;;1.93;;
12844;SDS011;68700;48.534;9.196;2023-09-18T18:07:11;3.60;;;1.93;;
12844;SDS011;68700;48.534;9.196;2023-09-18T18:10:33;2.07;;;1.70;;
12844;SDS011;68700;48.534;9.196;2023-09-18T18:13:55;3.63;;;1.73;;
12844;SDS011;68700;48.534;9.196;2023-09-18T18:17:17;3.27;;;1.53;;
12844;SDS011;68700;48.534;9.196;2023-09-18T18:20:43;3.20;;;1.70;;
12844;SDS011;68700;48.534;9.196;2023-09-18T18:24:06;2.07;;;1.53;;
12844;SDS011;68700;48.534;9.196;2023-09-18T18:27:29;3.20;;;1.80;;
12844;SDS011;68700;48.534;9.196;2023-09-18T18:30:54;1.90;;;1.67;;
12844;SDS011;68700;48.534;9.196;2023-09-18T18:34:16;2.40;;;1.70;;
12844;SDS011;68700;48.534;9.196;2023-09-18T18:37:39;3.07;;;1.83;;
12844;SDS011;68700;48.534;9.196;2023-09-18T18:41:01;2.13;;;1.73;;
12844;SDS011;68700;48.534;9.196;2023-09-18T18:44:23;2.77;;;1.63;;
12844;SDS011;68700;48.534;9.196;2023-09-18T18:47:45;3.10;;;2.10;;
12844;SDS011;68700;48.534;9.196;2023-09-18T18:51:08;2.53;;;1.80;;
12844;SDS011;68700;48.534;9.196;2023-09-18T18:54:33;3.17;;;1.77;;
12844;SDS011;68700;48.534;9.196;2023-09-18T18:57:55;2.43;;;1.53;;
12844;SDS011;68700;48.534;9.196;2023-09-18T19:01:17;2.20;;;1.53;;
12844;SDS011;68700;48.534;9.196;2023-09-18T19:04:43;3.10;;;1.90;;
12844;SDS011;68700;48.534;9.196;2023-09-18T19:08:05;2.50;;;1.87;;
12844;SDS011;68700;48.534;9.196;2023-09-18T19:11:28;2.53;;;1.70;;
12844;SDS011;68700;48.534;9.196;2023-09-18T19:14:50;4.10;;;2.00;;
12844;SDS011;68700;48.534;9.196;2023-09-18T19:18:13;2.43;;;1.80;;
12844;SDS011;68700;48.534;9.196;2023-09-18T19:21:35;2.47;;;2.00;;
12844;SDS011;68700;48.534;9.196;2023-09-18T19:24:59;1.63;;;1.53;;
12844;SDS011;68700;48.534;9.196;2023-09-18T19:28:22;1.60;;;1.50;;
12844;SDS011;68700;48.534;9.196;2023-09-18T19:31:46;3.57;;;1.50;;
12844;SDS011;68700;48.534;9.196;2023-09-18T19:35:08;2.60;;;1.90;;
12844;SDS011;68700;48.534;9.196;2023-09-18T19:38:30;3.03;;;1.67;;
12844;SDS011;68700;48.534;9.196;2023-09-18T19:41:52;2.40;;;1.73;;
12844;SDS011;68700;48.534;9.196;2023-09-18T19:45:18;3.27;;;1.90;;
12844;SDS011;68700;48.534;9.196;2023-09-18T19:48:40;2.80;;;1.87;;
12844;SDS011;68700;48.534;9.196;2023-09-18T19:52:02;3.77;;;1.90;;
12844;SDS011;68700;48.534;9.196;2023-09-18T19:55:25;3.00;;;1.60;;
12844;SDS011;68700;48.534;9.196;2023-09-18T19:58:48;3.27;;;2.10;;
12844;SDS011;68700;48.534;9.196;2023-09-18T20:02:13;2.10;;;1.90;;
12844;SDS011;68700;48.534;9.196;2023-09-18T20:05:37;2.03;;;1.50;;
12844;SDS011;68700;48.534;9.196;2023-09-18T20:08:59;2.57;;;1.70;;
12844;SDS011;68700;48.534;9.196;2023-09-18T20:12:23;1.90;;;1.40;;
12844;SDS011;68700;48.534;9.196;2023-09-18T20:15:45;2.50;;;1.37;;
12844;SDS011;68700;48.534;9.196;2023-09-18T20:19:08;1.97;;;1.23;;
12844;SDS011;68700;48.534;9.196;2023-09-18T20:22:34;1.63;;;1.13;;
12844;SDS011;68700;48.534;9.196;2023-09-18T20:25:56;1.20;;;1.10;;
12844;SDS011;68700;48.534;9.196;2023-09-18T20:29:20;1.70;;;1.27;;